Time;durP1;ratioP1;P1;durP2;ratioP2;P2;SDS_P1;SDS_P2;PMS_P1;PMS_P2;Temp;Humidity;BMP_temperature;BMP_pressure;BME280_temperature;BME280_humidity;BME280_pressure;Samples;Min_cycle;Max_cycle;Signal;HPM_P1;HPM_P2
2021/03/18 00:00:52;;;;;;;13.90;6.40;;;6.20;70.30;;;;;;2342687;53;20928;-65
2021/03/18 00:03:20;;;;;;;15.65;7.45;;;6.20;70.40;;;;;;2343960;54;20956;-65
2021/03/18 00:05:46;;;;;;;18.23;9.13;;;6.20;70.50;;;;;;2343507;54;21000;-64
2021/03/18 00:08:15;;;;;;;15.25;7.03;;;6.20;70.50;;;;;;2589761;52;21032;-65
2021/03/18 00:10:44;;;;;;;14.20;6.15;;;6.20;70.60;;;;;;2342749;53;21855;-64
2021/03/18 00:13:11;;;;;;;7.93;4.62;;;6.20;70.50;;;;;;2347240;53;21428;-65
2021/03/18 00:15:38;;;;;;;7.62;4.30;;;6.20;70.40;;;;;;2343575;53;20941;-64
2021/03/18 00:18:05;;;;;;;6.87;3.70;;;6.20;70.40;;;;;;2350915;53;21075;-64
2021/03/18 00:20:32;;;;;;;6.75;3.72;;;6.20;70.40;;;;;;2318835;54;20945;-64
2021/03/18 00:22:59;;;;;;;7.45;4.10;;;6.10;70.40;;;;;;2589981;52;20968;-64
2021/03/18 00:25:25;;;;;;;8.13;3.90;;;6.20;70.50;;;;;;2346906;53;20947;-64
2021/03/18 00:27:51;;;;;;;8.35;4.12;;;6.10;70.50;;;;;;2589921;53;21060;-64
2021/03/18 00:30:18;;;;;;;10.57;4.65;;;6.10;70.60;;;;;;2590257;52;20932;-65
2021/03/18 00:32:45;;;;;;;8.50;4.40;;;6.10;70.60;;;;;;2344066;54;21024;-65
2021/03/18 00:35:12;;;;;;;7.15;3.75;;;6.10;70.60;;;;;;2589656;53;20980;-64
2021/03/18 00:37:41;;;;;;;7.57;3.83;;;6.10;70.70;;;;;;2344190;54;21003;-65
2021/03/18 00:40:19;;;;;;;7.45;3.42;;;6.10;70.70;;;;;;2590876;53;20956;-65
2021/03/18 00:42:56;;;;;;;5.30;3.05;;;6.10;70.70;;;;;;2343644;53;20972;-65
2021/03/18 00:45:26;;;;;;;5.97;3.12;;;6.10;70.90;;;;;;2342993;54;20945;-65
2021/03/18 00:47:52;;;;;;;5.62;3.25;;;6.10;70.80;;;;;;2344599;54;20940;-65
2021/03/18 00:50:27;;;;;;;6.00;2.87;;;6.10;70.90;;;;;;2590534;52;21071;-65
2021/03/18 00:52:54;;;;;;;6.43;3.22;;;6.10;70.90;;;;;;2344064;54;20940;-64
2021/03/18 00:55:23;;;;;;;5.60;2.67;;;6.10;70.80;;;;;;2343647;53;20948;-64
2021/03/18 00:57:49;;;;;;;5.50;2.90;;;6.10;70.70;;;;;;2346585;53;20903;-64
2021/03/18 01:00:24;;;;;;;4.60;2.53;;;6.10;70.80;;;;;;2346849;53;21400;-65
2021/03/18 01:02:51;;;;;;;5.03;2.55;;;6.10;70.70;;;;;;2590707;52;20891;-64
2021/03/18 01:06:05;;;;;;;5.07;2.65;;;6.20;70.80;;;;;;2346758;53;20919;-64
2021/03/18 01:08:32;;;;;;;4.12;2.40;;;6.10;70.30;;;;;;2344297;53;21012;-65
2021/03/18 01:11:18;;;;;;;4.55;2.22;;;6.10;70.60;;;;;;2353003;53;20991;-64
2021/03/18 01:13:47;;;;;;;4.18;2.35;;;6.10;70.50;;;;;;2343826;53;20963;-65
2021/03/18 01:16:18;;;;;;;3.97;2.10;;;6.10;70.60;;;;;;2340898;53;21530;-64
2021/03/18 01:18:50;;;;;;;5.72;2.92;;;6.10;70.60;;;;;;2343535;54;21003;-65
2021/03/18 01:21:16;;;;;;;5.35;3.08;;;6.10;70.60;;;;;;2344221;54;21004;-65
2021/03/18 01:23:43;;;;;;;4.28;2.50;;;6.10;70.60;;;;;;2590812;52;21598;-64
2021/03/18 01:26:10;;;;;;;6.12;3.17;;;6.10;70.60;;;;;;2342908;53;20935;-64
2021/03/18 01:28:39;;;;;;;6.20;3.17;;;6.10;70.70;;;;;;2343772;54;20976;-64
2021/03/18 01:31:07;;;;;;;5.53;2.85;;;6.10;70.80;;;;;;2343172;53;20916;-65
2021/03/18 01:33:34;;;;;;;5.00;2.70;;;6.10;70.80;;;;;;2590752;52;20983;-65
2021/03/18 01:36:01;;;;;;;5.10;3.00;;;6.10;70.90;;;;;;2582959;52;20987;-64
2021/03/18 01:38:30;;;;;;;4.57;2.67;;;6.10;70.90;;;;;;2345524;53;20978;-64
2021/03/18 01:40:57;;;;;;;6.12;3.08;;;6.10;70.90;;;;;;2346247;53;21043;-64
2021/03/18 01:43:24;;;;;;;5.45;3.12;;;6.10;71.00;;;;;;2343095;53;20900;-65
2021/03/18 01:45:51;;;;;;;5.80;3.20;;;6.10;71.00;;;;;;2590368;52;20916;-64
2021/03/18 01:48:17;;;;;;;4.97;2.90;;;6.10;71.00;;;;;;2353124;53;21069;-64
2021/03/18 01:50:43;;;;;;;6.15;2.78;;;6.10;71.00;;;;;;2575627;52;20944;-64
2021/03/18 01:53:09;;;;;;;5.90;3.05;;;6.10;71.10;;;;;;2591047;53;20918;-64
2021/03/18 01:55:38;;;;;;;5.97;3.65;;;6.10;71.00;;;;;;2327258;53;21003;-65
2021/03/18 01:58:05;;;;;;;7.90;4.22;;;6.10;70.90;;;;;;2338844;53;20968;-66
2021/03/18 02:00:31;;;;;;;8.05;4.40;;;6.10;70.70;;;;;;2342755;54;20948;-65
2021/03/18 02:02:57;;;;;;;6.07;3.08;;;6.10;70.70;;;;;;2343771;53;21052;-64
2021/03/18 02:05:24;;;;;;;4.50;2.22;;;6.10;70.70;;;;;;2343863;53;20932;-65
2021/03/18 02:07:52;;;;;;;7.25;3.05;;;6.10;70.80;;;;;;2343542;54;20920;-65
2021/03/18 02:10:23;;;;;;;4.68;2.65;;;6.10;70.80;;;;;;2356037;53;20944;-65
2021/03/18 02:12:50;;;;;;;6.55;2.50;;;6.10;70.80;;;;;;2583981;52;21583;-65
2021/03/18 02:15:16;;;;;;;5.60;2.90;;;6.10;70.80;;;;;;2344024;54;20932;-65
2021/03/18 02:17:54;;;;;;;4.87;2.60;;;6.10;70.80;;;;;;2324199;54;21000;-64
2021/03/18 02:22:17;;;;;;;4.85;2.65;;;6.10;70.70;;;;;;2343766;54;21019;-65
2021/03/18 02:25:02;;;;;;;5.30;2.60;;;6.10;70.40;;;;;;2346896;53;21561;-64
2021/03/18 02:28:14;;;;;;;3.10;1.80;;;6.10;70.40;;;;;;2349425;53;20941;-65
2021/03/18 02:31:42;;;;;;;3.35;1.73;;;6.10;70.30;;;;;;2349910;53;21008;-65
2021/03/18 02:34:37;;;;;;;4.18;2.17;;;6.10;69.90;;;;;;2342969;53;21003;-64
2021/03/18 02:37:07;;;;;;;4.12;2.35;;;6.00;69.90;;;;;;2590469;52;20964;-65
2021/03/18 02:39:39;;;;;;;3.47;1.80;;;6.00;69.90;;;;;;2343377;53;21004;-65
2021/03/18 02:42:06;;;;;;;;;;;6.00;69.80;;;;;;2347084;53;21336;-65
2021/03/18 02:44:33;;;;;;;3.25;1.42;;;5.90;69.10;;;;;;2343419;54;20091;-64
2021/03/18 02:47:04;;;;;;;3.53;1.70;;;5.90;69.40;;;;;;2343706;54;20955;-64
2021/03/18 02:49:43;;;;;;;3.30;1.45;;;5.90;69.30;;;;;;2344198;54;20925;-64
2021/03/18 02:52:17;;;;;;;3.65;1.73;;;5.80;69.00;;;;;;2590261;52;20934;-65
2021/03/18 02:54:43;;;;;;;3.60;2.00;;;5.80;69.00;;;;;;2343591;54;20980;-64
2021/03/18 02:57:11;;;;;;;4.60;2.20;;;5.70;68.80;;;;;;2344825;54;20972;-65
2021/03/18 02:59:39;;;;;;;4.60;2.15;;;5.60;68.80;;;;;;2590555;53;20995;-64
2021/03/18 03:02:10;;;;;;;4.57;2.10;;;5.60;68.90;;;;;;2590618;52;20945;-65
2021/03/18 03:04:37;;;;;;;3.85;1.87;;;5.60;68.90;;;;;;2590477;52;20993;-65
2021/03/18 03:07:05;;;;;;;3.90;2.12;;;5.50;68.90;;;;;;2343944;54;20936;-64
2021/03/18 03:09:32;;;;;;;5.22;2.40;;;5.40;68.80;;;;;;2590573;53;20941;-64
2021/03/18 03:12:00;;;;;;;4.35;1.83;;;5.40;68.90;;;;;;2589929;52;20988;-65
2021/03/18 03:14:26;;;;;;;4.80;2.55;;;5.40;69.70;;;;;;2343409;53;20940;-65
2021/03/18 03:16:53;;;;;;;5.12;2.60;;;5.30;69.00;;;;;;2589974;52;20908;-64
2021/03/18 03:19:19;;;;;;;5.65;2.75;;;5.30;69.10;;;;;;2343926;54;21774;-65
2021/03/18 03:21:45;;;;;;;4.35;2.03;;;5.30;69.20;;;;;;2351090;53;21438;-65
2021/03/18 03:24:14;;;;;;;4.55;2.15;;;5.20;69.30;;;;;;2326667;53;21003;-64
2021/03/18 03:26:40;;;;;;;5.87;2.40;;;5.20;69.30;;;;;;2590572;52;20936;-65
2021/03/18 03:29:06;;;;;;;4.53;2.22;;;5.20;69.30;;;;;;2343540;53;20956;-64
2021/03/18 03:31:33;;;;;;;4.70;2.03;;;5.10;69.30;;;;;;2343587;53;21946;-64
2021/03/18 03:34:01;;;;;;;4.00;2.03;;;5.10;69.30;;;;;;2590229;52;21005;-64
2021/03/18 03:36:27;;;;;;;3.67;1.90;;;5.10;69.40;;;;;;2347557;53;21012;-64
2021/03/18 03:38:54;;;;;;;5.25;2.03;;;5.10;69.50;;;;;;2343579;53;20980;-65
2021/03/18 03:41:20;;;;;;;5.03;2.12;;;5.10;69.60;;;;;;2589448;53;21817;-64
2021/03/18 03:43:48;;;;;;;6.68;2.20;;;5.00;69.60;;;;;;2344023;54;21000;-64
2021/03/18 03:46:14;;;;;;;4.53;2.00;;;5.00;69.60;;;;;;2343739;53;20933;-65
2021/03/18 03:48:41;;;;;;;4.22;2.20;;;5.00;69.70;;;;;;2347335;53;21737;-64
2021/03/18 03:51:07;;;;;;;6.25;2.67;;;5.00;69.80;;;;;;2339403;53;20915;-64
2021/03/18 03:53:43;;;;;;;4.57;2.28;;;5.00;69.90;;;;;;2590819;52;20928;-65
2021/03/18 03:56:24;;;;;;;4.72;2.22;;;5.00;69.80;;;;;;2353199;53;20965;-64
2021/03/18 03:58:52;;;;;;;5.25;2.03;;;5.00;69.90;;;;;;2317781;54;20988;-64
2021/03/18 04:01:34;;;;;;;4.28;2.28;;;4.90;69.70;;;;;;2325536;54;20956;-64
2021/03/18 04:04:14;;;;;;;6.12;2.60;;;5.00;69.80;;;;;;2343753;54;20928;-64
2021/03/18 04:06:41;;;;;;;5.97;2.50;;;4.90;69.70;;;;;;2344331;53;21011;-64
2021/03/18 04:09:11;;;;;;;5.65;2.42;;;4.90;69.80;;;;;;2348633;53;21024;-64
2021/03/18 04:11:38;;;;;;;5.18;2.67;;;4.90;69.80;;;;;;2344682;53;20938;-64
2021/03/18 04:14:05;;;;;;;4.55;2.47;;;4.90;69.80;;;;;;2344188;53;20937;-64
2021/03/18 04:16:32;;;;;;;5.78;2.70;;;4.90;69.80;;;;;;2590452;52;21695;-64
2021/03/18 04:18:59;;;;;;;5.05;2.50;;;4.90;70.00;;;;;;2343750;54;21409;-65
2021/03/18 04:21:26;;;;;;;4.82;2.55;;;4.80;69.90;;;;;;2343894;53;20949;-64
2021/03/18 04:23:55;;;;;;;5.62;2.83;;;4.80;70.00;;;;;;2351306;53;21017;-64
2021/03/18 04:26:21;;;;;;;4.80;2.25;;;4.90;70.10;;;;;;2338150;53;20952;-64
2021/03/18 04:28:47;;;;;;;3.65;2.17;;;4.80;70.10;;;;;;2346846;53;21356;-64
2021/03/18 04:31:13;;;;;;;4.45;2.58;;;4.80;70.20;;;;;;2590037;52;22484;-64
2021/03/18 04:33:40;;;;;;;4.68;2.47;;;4.80;70.20;;;;;;2347360;53;20935;-65
2021/03/18 04:36:07;;;;;;;4.03;2.15;;;4.80;70.10;;;;;;2327668;53;20975;-64
2021/03/18 04:38:38;;;;;;;7.10;2.50;;;4.80;70.10;;;;;;2587388;52;20980;-65
2021/03/18 04:41:05;;;;;;;4.90;2.47;;;4.90;70.20;;;;;;2589165;52;20995;-64
2021/03/18 04:43:31;;;;;;;4.95;2.45;;;4.80;70.10;;;;;;2590085;53;20948;-64
2021/03/18 04:45:58;;;;;;;4.72;2.22;;;4.80;70.10;;;;;;2590101;52;20952;-64
2021/03/18 04:48:26;;;;;;;5.37;2.83;;;4.80;70.10;;;;;;2347608;54;21490;-64
2021/03/18 04:50:53;;;;;;;4.50;2.37;;;4.80;70.10;;;;;;2346461;53;20930;-64
2021/03/18 04:53:20;;;;;;;5.07;2.72;;;4.80;69.90;;;;;;2343663;53;21448;-64
2021/03/18 04:55:47;;;;;;;7.40;2.62;;;4.80;69.90;;;;;;2344261;53;20968;-64
2021/03/18 04:58:13;;;;;;;5.87;2.70;;;4.80;69.80;;;;;;2589167;52;20949;-64
2021/03/18 05:00:40;;;;;;;5.80;3.25;;;4.80;69.80;;;;;;2591487;52;20990;-64
2021/03/18 05:03:07;;;;;;;6.65;4.18;;;4.80;69.80;;;;;;2575641;52;20923;-65
2021/03/18 05:05:33;;;;;;;6.30;3.55;;;4.80;69.80;;;;;;2341029;53;20960;-64
2021/03/18 05:08:00;;;;;;;7.05;3.20;;;4.80;69.80;;;;;;2589598;52;20967;-65
2021/03/18 05:10:31;;;;;;;6.93;3.83;;;4.80;69.90;;;;;;2327832;54;20919;-64
2021/03/18 05:12:58;;;;;;;5.62;3.40;;;4.80;70.00;;;;;;2342973;53;20996;-65
2021/03/18 05:15:27;;;;;;;6.45;3.35;;;4.80;70.10;;;;;;2343266;54;20912;-64
2021/03/18 05:17:54;;;;;;;7.45;3.90;;;4.80;70.20;;;;;;2343741;53;20896;-64
2021/03/18 05:20:24;;;;;;;8.90;3.87;;;4.80;70.30;;;;;;2589875;52;21014;-64
2021/03/18 05:22:51;;;;;;;9.43;4.60;;;4.80;70.30;;;;;;2344233;53;20981;-64
2021/03/18 05:25:22;;;;;;;7.62;4.37;;;4.80;70.40;;;;;;2331887;53;20947;-64
2021/03/18 05:27:49;;;;;;;8.50;3.87;;;4.80;70.30;;;;;;2349073;53;20974;-64
2021/03/18 05:30:15;;;;;;;6.45;3.70;;;4.80;70.30;;;;;;2340848;53;21027;-65
2021/03/18 05:32:42;;;;;;;6.95;4.00;;;4.80;70.40;;;;;;2343699;53;20991;-65
2021/03/18 05:35:09;;;;;;;6.32;3.70;;;4.80;70.40;;;;;;2590090;52;21306;-64
2021/03/18 05:37:35;;;;;;;5.78;3.30;;;4.80;70.50;;;;;;2343656;54;20956;-64
2021/03/18 05:40:04;;;;;;;5.68;3.28;;;4.80;70.60;;;;;;2343635;54;21008;-64
2021/03/18 05:42:30;;;;;;;7.80;3.97;;;4.80;70.70;;;;;;2343319;54;20928;-65
2021/03/18 05:44:56;;;;;;;8.60;4.22;;;4.80;70.70;;;;;;2589870;52;20955;-64
2021/03/18 05:47:23;;;;;;;5.93;3.50;;;4.80;70.80;;;;;;2343429;53;21003;-64
2021/03/18 05:49:49;;;;;;;7.28;4.03;;;4.90;70.90;;;;;;2343134;53;21105;-64
2021/03/18 05:52:15;;;;;;;6.87;4.18;;;4.90;71.00;;;;;;2347086;54;21389;-64
2021/03/18 05:54:48;;;;;;;9.57;5.15;;;4.90;71.00;;;;;;2342758;53;21020;-64
2021/03/18 05:57:15;;;;;;;7.60;4.47;;;4.90;71.00;;;;;;2347729;54;21014;-65
2021/03/18 05:59:44;;;;;;;9.55;5.18;;;4.90;70.90;;;;;;2342165;53;21004;-65
2021/03/18 06:02:11;;;;;;;7.72;4.30;;;5.00;71.10;;;;;;2354255;53;20949;-65
2021/03/18 06:04:38;;;;;;;9.27;5.05;;;5.00;71.20;;;;;;2340888;53;20979;-64
2021/03/18 06:07:05;;;;;;;8.95;4.60;;;5.00;71.10;;;;;;2562560;53;21023;-65
2021/03/18 06:09:31;;;;;;;9.88;5.53;;;5.00;71.10;;;;;;2343767;54;21405;-64
2021/03/18 06:11:58;;;;;;;9.25;4.87;;;5.00;71.00;;;;;;2342047;54;20996;-64
2021/03/18 06:14:25;;;;;;;8.07;4.93;;;5.10;71.10;;;;;;2343508;54;21009;-64
2021/03/18 06:16:53;;;;;;;9.65;4.70;;;5.00;71.10;;;;;;2342534;54;20972;-64
2021/03/18 06:19:19;;;;;;;8.38;4.87;;;5.10;71.30;;;;;;2343221;54;20925;-64
2021/03/18 06:21:51;;;;;;;9.48;4.32;;;5.10;71.40;;;;;;2343547;53;21724;-64
2021/03/18 06:24:19;;;;;;;8.07;4.53;;;5.10;71.40;;;;;;2590782;52;22049;-64
2021/03/18 06:26:45;;;;;;;9.95;5.30;;;5.10;71.40;;;;;;2343400;53;21044;-65
2021/03/18 06:29:34;;;;;;;9.43;5.30;;;5.20;71.60;;;;;;2589375;52;20932;-65
2021/03/18 06:33:55;;;;;;;10.52;5.82;;;5.20;71.50;;;;;;2345241;53;21381;-64
2021/03/18 06:36:30;;;;;;;10.57;5.78;;;5.30;71.10;;;;;;2345822;54;21504;-65
2021/03/18 06:39:57;;;;;;;10.20;5.35;;;5.30;71.50;;;;;;2342443;54;20972;-64
2021/03/18 06:42:23;;;;;;;15.18;7.82;;;5.30;71.60;;;;;;2343046;53;20943;-64
2021/03/18 06:45:10;;;;;;;13.32;8.00;;;5.30;71.70;;;;;;2343516;53;20987;-64
2021/03/18 06:47:51;;;;;;;14.40;8.68;;;5.40;71.80;;;;;;2343634;54;21567;-64
2021/03/18 06:50:20;;;;;;;13.48;8.27;;;5.40;71.80;;;;;;2353043;53;21091;-65
2021/03/18 06:52:48;;;;;;;10.13;6.00;;;5.40;71.90;;;;;;2578566;52;20959;-65
2021/03/18 06:55:32;;;;;;;13.93;6.95;;;5.50;72.00;;;;;;2324878;53;20936;-64
2021/03/18 06:58:21;;;;;;;11.23;6.78;;;5.50;71.80;;;;;;2588396;52;20975;-65
2021/03/18 07:00:55;;;;;;;9.13;6.05;;;5.50;71.70;;;;;;2589014;52;20947;-65
2021/03/18 07:03:40;;;;;;;9.75;5.97;;;5.50;71.90;;;;;;2342920;54;20969;-65
2021/03/18 07:06:10;;;;;;;10.05;6.03;;;5.60;71.90;;;;;;2343244;54;21434;-64
2021/03/18 07:08:37;;;;;;;10.65;5.68;;;5.60;72.10;;;;;;2590011;52;20928;-65
2021/03/18 07:11:19;;;;;;;9.23;5.40;;;5.60;72.20;;;;;;2589529;52;21505;-64
2021/03/18 07:13:46;;;;;;;8.98;5.20;;;5.70;72.10;;;;;;2589399;53;21893;-65
2021/03/18 07:16:14;;;;;;;10.30;5.78;;;5.70;72.30;;;;;;2343717;54;21004;-65
2021/03/18 07:18:41;;;;;;;11.12;5.65;;;5.70;72.40;;;;;;2343008;54;21512;-65
2021/03/18 07:21:11;;;;;;;9.57;5.62;;;5.80;72.60;;;;;;2341727;54;21825;-65
2021/03/18 07:23:41;;;;;;;8.90;5.85;;;5.80;72.60;;;;;;2589428;52;20992;-64
2021/03/18 07:26:15;;;;;;;9.07;5.37;;;5.90;72.70;;;;;;2324945;53;21043;-65
2021/03/18 07:28:44;;;;;;;8.25;5.53;;;5.90;72.70;;;;;;2561581;53;21029;-64
2021/03/18 07:31:11;;;;;;;10.68;6.60;;;6.00;72.90;;;;;;2327551;54;21058;-64
2021/03/18 07:33:39;;;;;;;10.45;5.68;;;6.00;72.90;;;;;;2343465;53;21024;-65
2021/03/18 07:36:05;;;;;;;12.60;6.30;;;5.90;72.70;;;;;;2342809;54;21039;-64
2021/03/18 07:38:32;;;;;;;9.68;5.82;;;6.10;72.80;;;;;;2590096;52;20995;-65
2021/03/18 07:41:00;;;;;;;9.77;5.62;;;6.20;72.70;;;;;;2342970;54;20984;-64
2021/03/18 07:43:29;;;;;;;9.90;5.90;;;6.20;72.50;;;;;;2590325;52;21429;-65
2021/03/18 07:45:56;;;;;;;10.25;6.00;;;6.20;72.30;;;;;;2589031;52;20995;-65
2021/03/18 07:48:22;;;;;;;9.32;5.80;;;6.30;72.30;;;;;;2589040;52;21504;-65
2021/03/18 07:50:49;;;;;;;9.93;6.43;;;6.30;72.30;;;;;;2334895;53;21721;-64
2021/03/18 07:53:18;;;;;;;10.57;6.28;;;6.30;72.40;;;;;;2590655;53;20919;-64
2021/03/18 07:55:44;;;;;;;10.25;6.32;;;6.40;72.50;;;;;;2343134;53;20968;-65
2021/03/18 07:58:10;;;;;;;11.45;6.50;;;6.40;72.50;;;;;;2589544;53;20980;-65
2021/03/18 08:00:40;;;;;;;10.02;5.87;;;6.40;72.50;;;;;;2342823;54;20948;-65
2021/03/18 08:06:49;;;;;;;11.25;6.32;;;6.50;72.70;;;;;;2589199;52;21575;-65
2021/03/18 08:09:47;;;;;;;10.43;6.57;;;6.60;71.90;;;;;;2324359;55;20964;-65
2021/03/18 08:12:13;;;;;;;10.93;6.35;;;6.70;72.50;;;;;;2343003;54;20993;-65
2021/03/18 08:14:40;;;;;;;10.57;6.60;;;6.70;72.90;;;;;;2589657;52;21692;-65
2021/03/18 08:17:26;;;;;;;10.38;6.50;;;6.80;72.90;;;;;;2590231;53;21007;-65
2021/03/18 08:19:52;;;;;;;11.65;6.90;;;6.80;72.30;;;;;;2345902;53;21078;-65
2021/03/18 08:22:37;;;;;;;12.00;7.28;;;6.80;72.50;;;;;;2589015;53;21290;-64
2021/03/18 08:25:24;;;;;;;11.18;6.10;;;6.90;72.00;;;;;;2342340;54;20972;-65
2021/03/18 08:27:53;;;;;;;9.80;5.65;;;6.90;71.80;;;;;;2589250;52;20956;-65
2021/03/18 08:30:23;;;;;;;10.40;6.40;;;6.90;72.10;;;;;;2342867;53;21742;-65
2021/03/18 08:32:50;;;;;;;11.25;6.93;;;6.90;72.10;;;;;;2562168;53;20951;-65
2021/03/18 08:35:27;;;;;;;9.15;5.97;;;7.00;72.30;;;;;;2561516;53;21015;-65
2021/03/18 08:38:12;;;;;;;10.27;6.45;;;7.00;72.10;;;;;;2577666;52;21000;-65
2021/03/18 08:40:39;;;;;;;11.32;6.75;;;7.10;72.00;;;;;;2588665;52;21083;-65
2021/03/18 08:43:06;;;;;;;11.98;6.37;;;7.10;72.40;;;;;;2342687;53;20988;-65
2021/03/18 08:45:40;;;;;;;11.05;6.72;;;7.10;72.50;;;;;;2589504;52;21004;-65
2021/03/18 08:48:14;;;;;;;11.20;6.57;;;7.10;72.50;;;;;;2590683;52;21714;-65
2021/03/18 08:50:50;;;;;;;10.27;6.62;;;7.20;72.80;;;;;;2347269;53;21499;-65
2021/03/18 08:53:28;;;;;;;10.57;6.22;;;7.30;72.90;;;;;;2326087;53;21016;-64
2021/03/18 08:55:55;;;;;;;9.07;6.03;;;7.30;73.00;;;;;;2344714;53;20940;-65
2021/03/18 08:58:22;;;;;;;10.80;6.25;;;7.40;73.10;;;;;;2343873;54;20949;-65
2021/03/18 09:00:48;;;;;;;11.10;6.95;;;7.50;72.90;;;;;;2348030;53;20947;-64
2021/03/18 09:03:21;;;;;;;10.98;7.03;;;7.50;73.00;;;;;;2589861;53;21012;-65
2021/03/18 09:05:48;;;;;;;;;;;7.50;73.10;;;;;;2347671;53;21389;-65
2021/03/18 09:08:20;;;;;;;10.35;6.20;;;7.60;71.90;;;;;;2346215;53;20130;-65
2021/03/18 09:10:47;;;;;;;10.88;7.00;;;7.70;74.20;;;;;;2589165;52;20963;-64
2021/03/18 09:13:18;;;;;;;14.02;8.20;;;7.80;75.20;;;;;;2346472;53;21255;-65
2021/03/18 09:15:45;;;;;;;16.33;10.00;;;8.00;76.70;;;;;;2589465;52;20971;-65
2021/03/18 09:18:18;;;;;;;12.50;8.43;;;8.30;78.40;;;;;;2347370;54;20940;-65
2021/03/18 09:20:53;;;;;;;13.30;8.75;;;8.50;79.40;;;;;;2342576;53;20952;-65
2021/03/18 09:23:24;;;;;;;11.68;7.85;;;8.80;79.60;;;;;;2347937;53;20983;-65
2021/03/18 09:25:53;;;;;;;10.63;7.53;;;9.10;79.80;;;;;;2327790;53;21010;-65
2021/03/18 09:28:19;;;;;;;11.70;7.85;;;9.40;79.60;;;;;;2342517;53;20948;-65
2021/03/18 09:30:57;;;;;;;10.85;7.45;;;9.60;79.30;;;;;;2346092;53;21102;-65
2021/03/18 09:33:26;;;;;;;10.35;7.35;;;9.90;79.80;;;;;;2345349;53;21725;-65
2021/03/18 09:35:54;;;;;;;9.60;7.15;;;10.10;78.90;;;;;;2347643;53;20934;-65
2021/03/18 09:38:27;;;;;;;12.37;8.07;;;10.40;78.10;;;;;;2343138;53;20944;-65
2021/03/18 09:40:54;;;;;;;12.43;8.38;;;10.60;76.40;;;;;;2562871;53;21734;-65
2021/03/18 09:43:22;;;;;;;11.43;7.53;;;10.70;74.70;;;;;;2343785;53;20995;-65
2021/03/18 09:45:59;;;;;;;10.25;7.10;;;10.70;73.20;;;;;;2344024;54;20987;-65
2021/03/18 09:48:28;;;;;;;11.55;7.93;;;10.80;72.10;;;;;;2324280;55;21776;-65
2021/03/18 09:51:11;;;;;;;11.82;8.45;;;10.80;72.70;;;;;;2323958;55;20940;-65
2021/03/18 09:53:46;;;;;;;13.27;9.52;;;10.80;72.80;;;;;;2351505;53;21042;-65
2021/03/18 09:56:14;;;;;;;11.95;8.00;;;10.90;74.10;;;;;;2576576;52;21018;-65
2021/03/18 09:58:42;;;;;;;10.43;7.65;;;11.00;74.80;;;;;;2589950;52;20988;-65
2021/03/18 10:01:19;;;;;;;9.13;6.82;;;11.10;75.80;;;;;;2341843;53;20964;-65
2021/03/18 10:03:58;;;;;;;9.52;6.15;;;11.30;76.10;;;;;;2589879;52;21044;-65
2021/03/18 10:06:32;;;;;;;10.48;7.40;;;11.50;76.20;;;;;;2327682;54;20996;-65
2021/03/18 10:09:31;;;;;;;9.23;6.05;;;11.80;77.50;;;;;;2349503;53;21456;-65
2021/03/18 10:12:22;;;;;;;6.97;5.47;;;12.10;77.70;;;;;;2346851;54;20972;-65
2021/03/18 10:15:06;;;;;;;8.38;4.78;;;12.40;77.90;;;;;;2343476;54;21771;-65
2021/03/18 10:17:35;;;;;;;7.53;5.80;;;12.70;78.20;;;;;;2344158;54;20964;-65
2021/03/18 10:20:22;;;;;;;7.68;5.20;;;12.90;79.10;;;;;;2342668;53;20972;-65
2021/03/18 10:23:07;;;;;;;5.57;4.07;;;13.30;77.50;;;;;;2342931;54;21927;-65
2021/03/18 10:25:35;;;;;;;5.60;3.95;;;13.50;75.50;;;;;;2343736;54;20949;-65
2021/03/18 10:28:10;;;;;;;6.50;3.90;;;13.60;73.20;;;;;;2346358;53;20970;-65
2021/03/18 10:30:43;;;;;;;7.78;4.57;;;13.60;70.70;;;;;;2588913;52;20948;-66
2021/03/18 10:33:17;;;;;;;6.43;3.53;;;13.70;71.50;;;;;;2343229;54;21802;-65
2021/03/18 10:36:44;;;;;;;8.52;4.30;;;13.70;72.30;;;;;;2343576;53;21001;-66
2021/03/18 10:39:12;;;;;;;9.20;3.60;;;13.90;70.50;;;;;;2343362;54;20992;-65
2021/03/18 10:41:59;;;;;;;5.97;3.42;;;14.00;73.10;;;;;;2319987;53;1774409;-65
2021/03/18 10:44:42;;;;;;;6.72;3.67;;;14.10;69.90;;;;;;2562096;53;20972;-65
2021/03/18 10:47:18;;;;;;;5.78;3.33;;;14.00;69.00;;;;;;2589231;53;20954;-65
2021/03/18 10:50:07;;;;;;;6.62;4.05;;;14.00;69.50;;;;;;2331189;53;21106;-65
2021/03/18 10:52:36;;;;;;;6.37;3.78;;;14.00;68.20;;;;;;2343237;54;21024;-65
2021/03/18 10:55:02;;;;;;;7.30;3.95;;;13.90;68.70;;;;;;2346110;53;20942;-66
2021/03/18 10:57:28;;;;;;;6.20;3.53;;;13.80;67.40;;;;;;2346465;53;20979;-65
2021/03/18 10:59:55;;;;;;;5.80;3.37;;;13.60;67.30;;;;;;2578601;52;21038;-65
2021/03/18 11:02:24;;;;;;;5.90;3.17;;;13.50;66.00;;;;;;2588890;52;20979;-65
2021/03/18 11:05:01;;;;;;;5.90;2.78;;;13.30;65.30;;;;;;2583359;52;21460;-65
2021/03/18 11:07:28;;;;;;;4.82;2.50;;;13.10;64.50;;;;;;2588898;52;20935;-65
2021/03/18 11:10:07;;;;;;;4.70;2.78;;;12.90;64.70;;;;;;2589405;52;21002;-65
2021/03/18 11:12:35;;;;;;;4.87;2.95;;;12.70;64.60;;;;;;2585355;52;20969;-65
2021/03/18 11:15:02;;;;;;;4.62;2.78;;;12.50;64.80;;;;;;2574997;52;21010;-65
2021/03/18 11:17:29;;;;;;;6.60;3.67;;;12.30;65.00;;;;;;2589552;52;21858;-65
2021/03/18 11:20:15;;;;;;;5.95;3.10;;;12.10;65.10;;;;;;2346025;53;20971;-65
2021/03/18 11:22:45;;;;;;;5.75;3.03;;;12.00;64.10;;;;;;2588814;52;21030;-65
2021/03/18 11:25:13;;;;;;;6.43;3.20;;;11.80;65.50;;;;;;2342978;54;21023;-65
2021/03/18 11:27:49;;;;;;;5.12;2.75;;;11.70;66.30;;;;;;2589271;52;21024;-65
2021/03/18 11:30:29;;;;;;;5.85;3.30;;;11.60;66.80;;;;;;2346200;53;20947;-65
2021/03/18 11:33:10;;;;;;;6.22;3.53;;;11.50;66.40;;;;;;2589477;52;21438;-65
2021/03/18 11:35:37;;;;;;;5.50;2.83;;;11.40;66.60;;;;;;2342909;53;20965;-65
2021/03/18 11:38:03;;;;;;;5.28;2.78;;;11.30;67.60;;;;;;2589829;52;21035;-65
2021/03/18 11:40:34;;;;;;;5.50;2.47;;;11.30;66.70;;;;;;2343214;54;21041;-65
2021/03/18 11:43:00;;;;;;;4.60;2.50;;;11.20;66.50;;;;;;2589363;53;20996;-65
2021/03/18 11:45:27;;;;;;;5.53;2.60;;;11.10;66.20;;;;;;2346618;53;20943;-66
2021/03/18 11:47:53;;;;;;;4.20;2.22;;;11.00;65.70;;;;;;2590113;52;21016;-65
2021/03/18 11:50:20;;;;;;;3.22;1.80;;;10.90;65.30;;;;;;2342914;54;21020;-64
2021/03/18 11:52:49;;;;;;;3.37;1.98;;;10.70;64.90;;;;;;2588806;53;21739;-65
2021/03/18 11:55:16;;;;;;;4.10;2.40;;;10.60;64.30;;;;;;2590283;52;21083;-66
2021/03/18 11:57:43;;;;;;;3.97;1.85;;;10.40;63.70;;;;;;2342229;53;20949;-64
2021/03/18 12:00:11;;;;;;;3.37;1.83;;;10.20;63.50;;;;;;2589990;52;21398;-64
2021/03/18 12:02:39;;;;;;;3.75;1.87;;;10.10;63.50;;;;;;2343560;54;21016;-64
2021/03/18 12:05:08;;;;;;;3.45;1.67;;;9.90;63.60;;;;;;2341603;54;20924;-64
2021/03/18 12:07:35;;;;;;;8.13;2.62;;;9.70;62.50;;;;;;2343535;53;21045;-64
2021/03/18 12:10:03;;;;;;;6.45;3.70;;;9.50;61.60;;;;;;2589381;52;21428;-65
2021/03/18 12:12:30;;;;;;;5.80;3.62;;;9.30;60.50;;;;;;2589977;52;21935;-65
2021/03/18 12:14:56;;;;;;;4.03;2.55;;;9.10;60.30;;;;;;2343195;54;20975;-65
2021/03/18 12:17:23;;;;;;;5.05;2.70;;;9.00;60.70;;;;;;2589922;52;20924;-64
2021/03/18 12:19:49;;;;;;;4.35;2.28;;;8.80;61.70;;;;;;2590047;52;21412;-64
2021/03/18 12:22:16;;;;;;;4.68;2.47;;;8.70;63.50;;;;;;2342561;53;21476;-64
2021/03/18 12:24:42;;;;;;;4.90;2.47;;;8.80;66.70;;;;;;2344165;54;20948;-64
2021/03/18 12:27:08;;;;;;;5.37;2.70;;;8.90;69.90;;;;;;2590114;53;21022;-64
2021/03/18 12:29:35;;;;;;;7.55;3.30;;;9.00;71.80;;;;;;2327741;54;20930;-65
2021/03/18 12:32:01;;;;;;;6.40;3.12;;;9.10;72.70;;;;;;2345869;53;21023;-65
2021/03/18 12:34:29;;;;;;;7.28;4.12;;;9.30;73.80;;;;;;2588899;52;20957;-65
2021/03/18 12:36:56;;;;;;;6.72;4.35;;;9.40;75.00;;;;;;2346701;53;21011;-65
2021/03/18 12:39:22;;;;;;;6.00;4.20;;;9.60;76.70;;;;;;2335163;53;20984;-64
2021/03/18 12:41:49;;;;;;;8.40;4.50;;;9.80;77.60;;;;;;2342398;53;21485;-65
2021/03/18 12:44:15;;;;;;;6.78;3.87;;;10.10;76.20;;;;;;2350394;53;21663;-65
2021/03/18 12:46:43;;;;;;;6.32;4.10;;;10.30;75.10;;;;;;2344809;53;21040;-65
2021/03/18 12:49:13;;;;;;;8.73;4.47;;;10.40;73.80;;;;;;2342490;53;20916;-65
2021/03/18 12:51:39;;;;;;;6.80;4.18;;;10.60;73.60;;;;;;2344208;54;20980;-65
2021/03/18 12:54:06;;;;;;;6.70;4.30;;;10.70;74.40;;;;;;2331760;55;21029;-65
2021/03/18 12:56:33;;;;;;;7.05;4.40;;;10.90;74.80;;;;;;2581019;52;21690;-65
2021/03/18 12:58:59;;;;;;;7.43;4.25;;;11.10;75.20;;;;;;2343936;54;21015;-65
2021/03/18 13:01:26;;;;;;;7.53;4.53;;;11.30;75.90;;;;;;2586249;52;20967;-65
2021/03/18 13:03:53;;;;;;;7.30;4.43;;;11.50;76.20;;;;;;2324683;53;21537;-65
2021/03/18 13:06:22;;;;;;;8.82;4.85;;;11.80;75.80;;;;;;2343277;53;21024;-65
2021/03/18 13:08:48;;;;;;;6.43;3.87;;;12.10;75.30;;;;;;2347681;54;21020;-65
2021/03/18 13:11:14;;;;;;;7.30;4.00;;;12.30;75.70;;;;;;2342083;53;21047;-66
2021/03/18 13:13:44;;;;;;;7.43;3.78;;;12.60;75.30;;;;;;2590217;52;21579;-66
2021/03/18 13:16:11;;;;;;;7.55;3.40;;;12.80;74.60;;;;;;2343608;53;20908;-65
2021/03/18 13:18:39;;;;;;;6.10;3.33;;;13.00;74.00;;;;;;2324673;54;20976;-65